Futenma Marine Corps Air Station
ROTM : now visible

Airfield :











YOU CAN JOIN US ON...

 
LOGIN :

Register | Disclaimer

   EN    FR    IT 

 









Legend :    VFR   Marginal VFR   IFR   Intensive IFR   Very Intensive IFR
Visi :
Ceiling :
>= 8 km
>= 3000ft
5 to 8 km
1000 to 3000 ft
1500m to 5 km
500 to 1000 ft
800 to 1500m
200 to 500 ft
< 800m
< 200 ft
Symbols :   Thunderstorms  Fog  Heavy snow  Heavy precipitations  Wind > 20 kt






- Airport Elevation : 247 ft


ROTM - Futenma Marine Corps Air Station

CURRENT METAR :
  • 250256Z 34009KT 9999 FEW023 SCT030 SCT110 28/24 A2978 RMK SLP069 T02890239 10289 20256 51005

EXPIRED METARs :
  • 250156Z 29007KT 9999 FEW022 SCT030 BKN110 28/23 A2979 RMK SLP068 T02830233
  • 250056Z 34007KT 9999 FEW021 SCT050 SCT180 28/23 A2978 RMK SLP068 T02830233

TAF AMD TAF ROTM
Valid from the 24 at 23:00 until the 25 at 21:00 UTC


2423/2521 33010KT 9999 VCSH FEW015 SCT050 SCT180 QNH2975INS
FM250300 35009KT 9999 NSW SCT020 SCT050 BKN180 QNH2976INS
FM250930 01010KT 9999 FEW015 SCT030 BKN150 QNH2975INS T29/2503Z T26/2515Z AMD 2307
RJJJ FIR / Asia



MET'MAP, your aeronautical weather chart ! - Copyright ORBIFLY December 2007 - Disclaimer

ORBIFLY MET'MAP TEAM :

Programming & Development : Alexandra Zaïnal
Concept & original design : Baudouin d'Aumeries
Assistance for programming : Marc-Olivier Méhu
Technical & hardware support : Manuel Goepfert

Contact : metmap@orbifly.com




SOURCES & CREDITS :

   NOAA       Earth
Advisory